WAT5643 KLAX-KATL
Flight info
| Callsign | WAT5643 |
|---|---|
| Flight time | 4h 0m |
| Altitude | 35000 |
| Route | DOTSS2 CLEEE PKE J134 KEYKE KA33S KA36W KK36A KK36C OKM MEMFS HUTCC KNSAW RUSSA GLAVN2 |
| Aircraft | A21N/M-SDE3FGHIJ5RWY/LB1 |
Departure
| Time | 2026-05-05 13:53 |
|---|---|
| Airport | Los Angeles International Airport (KLAX) |
Arrival
| Time | 2026-05-05 17:54 |
|---|---|
| Airport | Hartsfield Jackson Atlanta International Airport (KATL) |
| Time | Latitude | Longitude | Altitude | Speed | Heading |
|---|---|---|---|---|---|
| 2026-05-05 13:30 | 33.94600 | -118.40821 | 120 ft | 0 kts | 83° |
| 2026-05-05 13:43 | 33.94599 | -118.40832 | 120 ft | 2 kts | 83° |
| 2026-05-05 13:43 | 33.94597 | -118.40846 | 120 ft | 0 kts | 83° |
| 2026-05-05 13:43 | 33.94594 | -118.40861 | 121 ft | 2 kts | 58° |
| 2026-05-05 13:44 | 33.94585 | -118.40874 | 121 ft | 2 kts | 33° |
| 2026-05-05 13:44 | 33.94573 | -118.40880 | 121 ft | 2 kts | 8° |
| 2026-05-05 13:44 | 33.94565 | -118.40881 | 121 ft | 1 kts | 353° |
| 2026-05-05 13:44 | 33.94571 | -118.40882 | 121 ft | 3 kts | 341° |
| 2026-05-05 13:45 | 33.94600 | -118.40897 | 121 ft | 4 kts | 338° |
| 2026-05-05 13:45 | 33.94616 | -118.40904 | 121 ft | 1 kts | 352° |
| 2026-05-05 13:45 | 33.94620 | -118.40904 | 122 ft | 0 kts | 353° |
| 2026-05-05 13:47 | 33.94621 | -118.40904 | 121 ft | 0 kts | 353° |
| 2026-05-05 13:47 | 33.94629 | -118.40905 | 122 ft | 2 kts | 353° |
| 2026-05-05 13:48 | 33.94650 | -118.40908 | 122 ft | 4 kts | 353° |
| 2026-05-05 13:48 | 33.94676 | -118.40912 | 122 ft | 4 kts | 353° |
| 2026-05-05 13:48 | 33.94705 | -118.40916 | 122 ft | 5 kts | 355° |
| 2026-05-05 13:48 | 33.94737 | -118.40914 | 122 ft | 6 kts | 19° |
| 2026-05-05 13:49 | 33.94772 | -118.40896 | 122 ft | 6 kts | 20° |
| 2026-05-05 13:49 | 33.94809 | -118.40887 | 123 ft | 6 kts | 14° |
| 2026-05-05 13:49 | 33.94833 | -118.40855 | 123 ft | 7 kts | 71° |
| 2026-05-05 13:49 | 33.94849 | -118.40770 | 122 ft | 13 kts | 82° |
| 2026-05-05 13:50 | 33.94861 | -118.40659 | 120 ft | 14 kts | 83° |
| 2026-05-05 13:50 | 33.94873 | -118.40543 | 120 ft | 15 kts | 85° |
| 2026-05-05 13:50 | 33.94884 | -118.40437 | 119 ft | 13 kts | 83° |
| 2026-05-05 13:50 | 33.94893 | -118.40340 | 117 ft | 14 kts | 84° |
| 2026-05-05 13:51 | 33.94903 | -118.40231 | 117 ft | 12 kts | 84° |
| 2026-05-05 13:51 | 33.94912 | -118.40141 | 116 ft | 13 kts | 83° |
| 2026-05-05 13:51 | 33.94923 | -118.40044 | 114 ft | 15 kts | 83° |
| 2026-05-05 13:51 | 33.94949 | -118.39942 | 113 ft | 15 kts | 46° |
| 2026-05-05 13:52 | 33.95034 | -118.39936 | 112 ft | 13 kts | 316° |
| 2026-05-05 13:52 | 33.95035 | -118.40025 | 114 ft | 13 kts | 260° |
| 2026-05-05 13:52 | 33.95012 | -118.40249 | 117 ft | 61 kts | 263° |
| 2026-05-05 13:52 | 33.94948 | -118.40867 | 124 ft | 116 kts | 263° |
| 2026-05-05 13:53 | 33.94850 | -118.41841 | 121 ft | 163 kts | 264° |
| 2026-05-05 13:53 | 33.94733 | -118.43046 | 395 ft | 180 kts | 264° |
| 2026-05-05 13:53 | 33.94602 | -118.44288 | 908 ft | 184 kts | 263° |
| 2026-05-05 13:53 | 33.94465 | -118.45589 | 1573 ft | 184 kts | 263° |
| 2026-05-05 13:54 | 33.94355 | -118.46896 | 2150 ft | 189 kts | 266° |
| 2026-05-05 13:54 | 33.94299 | -118.48326 | 2601 ft | 203 kts | 268° |
| 2026-05-05 13:54 | 33.94254 | -118.49836 | 2982 ft | 219 kts | 269° |
| 2026-05-05 13:54 | 33.94162 | -118.51601 | 3364 ft | 237 kts | 266° |
| 2026-05-05 13:55 | 33.94022 | -118.53512 | 3852 ft | 252 kts | 266° |
| 2026-05-05 13:55 | 33.93855 | -118.55651 | 4505 ft | 262 kts | 266° |
| 2026-05-05 13:55 | 33.93694 | -118.57685 | 5257 ft | 265 kts | 266° |
| 2026-05-05 13:55 | 33.93545 | -118.59566 | 5961 ft | 266 kts | 265° |
| 2026-05-05 13:56 | 33.93184 | -118.61457 | 6605 ft | 271 kts | 246° |
| 2026-05-05 13:56 | 33.92224 | -118.63026 | 7242 ft | 276 kts | 223° |
| 2026-05-05 13:56 | 33.90787 | -118.64037 | 7868 ft | 282 kts | 199° |
| 2026-05-05 13:56 | 33.89041 | -118.64292 | 8484 ft | 288 kts | 175° |
| 2026-05-05 13:57 | 33.87365 | -118.63692 | 9079 ft | 292 kts | 150° |
| 2026-05-05 13:57 | 33.86060 | -118.62312 | 9663 ft | 294 kts | 124° |
| 2026-05-05 13:57 | 33.85358 | -118.60429 | 10228 ft | 295 kts | 100° |
| 2026-05-05 13:57 | 33.85312 | -118.58321 | 10639 ft | 302 kts | 83° |
| 2026-05-05 13:58 | 33.85519 | -118.56185 | 10939 ft | 316 kts | 82° |
| 2026-05-05 13:58 | 33.85743 | -118.53934 | 11205 ft | 330 kts | 83° |
| 2026-05-05 13:58 | 33.85961 | -118.51630 | 11504 ft | 342 kts | 83° |
| 2026-05-05 13:58 | 33.86175 | -118.49219 | 12003 ft | 348 kts | 83° |
| 2026-05-05 13:59 | 33.86599 | -118.44138 | 13177 ft | 354 kts | 84° |
| 2026-05-05 13:59 | 33.86803 | -118.41602 | 13728 ft | 357 kts | 84° |
| 2026-05-05 14:00 | 33.87196 | -118.36619 | 14787 ft | 364 kts | 84° |
| 2026-05-05 14:00 | 33.87393 | -118.34098 | 15327 ft | 366 kts | 84° |
| 2026-05-05 14:00 | 33.87589 | -118.31563 | 15856 ft | 369 kts | 84° |
| 2026-05-05 14:00 | 33.87783 | -118.29054 | 16370 ft | 371 kts | 84° |
| 2026-05-05 14:01 | 33.87978 | -118.26511 | 16887 ft | 373 kts | 84° |
| 2026-05-05 14:01 | 33.88177 | -118.23914 | 17398 ft | 375 kts | 84° |
| 2026-05-05 14:01 | 33.88377 | -118.21290 | 17893 ft | 378 kts | 84° |
| 2026-05-05 14:01 | 33.88576 | -118.18684 | 18382 ft | 380 kts | 84° |
| 2026-05-05 14:02 | 33.88777 | -118.16043 | 18881 ft | 382 kts | 84° |
| 2026-05-05 14:02 | 33.88975 | -118.13432 | 19368 ft | 384 kts | 84° |
| 2026-05-05 14:02 | 33.89177 | -118.10759 | 19822 ft | 387 kts | 84° |
| 2026-05-05 14:02 | 33.89378 | -118.08099 | 20234 ft | 390 kts | 84° |
| 2026-05-05 14:03 | 33.89578 | -118.05438 | 20655 ft | 393 kts | 85° |
| 2026-05-05 14:03 | 33.89782 | -118.02719 | 21084 ft | 396 kts | 85° |
| 2026-05-05 14:03 | 33.89986 | -117.99978 | 21504 ft | 399 kts | 85° |
| 2026-05-05 14:03 | 33.90194 | -117.97185 | 21904 ft | 402 kts | 85° |
| 2026-05-05 14:04 | 33.90401 | -117.94393 | 22300 ft | 405 kts | 85° |
| 2026-05-05 14:04 | 33.90606 | -117.91605 | 22702 ft | 407 kts | 85° |
| 2026-05-05 14:04 | 33.90810 | -117.88835 | 23112 ft | 409 kts | 85° |
| 2026-05-05 14:04 | 33.91018 | -117.86021 | 23500 ft | 411 kts | 85° |
| 2026-05-05 14:05 | 33.91228 | -117.83138 | 23876 ft | 414 kts | 85° |
| 2026-05-05 14:05 | 33.91436 | -117.80298 | 24217 ft | 416 kts | 85° |
| 2026-05-05 14:05 | 33.91644 | -117.77434 | 24542 ft | 419 kts | 85° |
| 2026-05-05 14:05 | 33.91856 | -117.74511 | 24842 ft | 422 kts | 85° |
| 2026-05-05 14:06 | 33.92063 | -117.71638 | 25132 ft | 425 kts | 85° |
| 2026-05-05 14:06 | 33.92275 | -117.68706 | 25423 ft | 428 kts | 85° |
| 2026-05-05 14:06 | 33.92489 | -117.65724 | 25713 ft | 430 kts | 85° |
| 2026-05-05 14:06 | 33.92699 | -117.62788 | 25992 ft | 433 kts | 85° |
| 2026-05-05 14:07 | 33.92914 | -117.59784 | 26255 ft | 435 kts | 85° |
| 2026-05-05 14:07 | 33.93126 | -117.56805 | 26509 ft | 438 kts | 86° |
| 2026-05-05 14:07 | 33.93341 | -117.53763 | 26722 ft | 442 kts | 86° |
| 2026-05-05 14:07 | 33.93559 | -117.50677 | 26936 ft | 445 kts | 86° |
| 2026-05-05 14:08 | 33.93775 | -117.47607 | 27197 ft | 447 kts | 86° |
| 2026-05-05 14:08 | 33.93991 | -117.44524 | 27456 ft | 449 kts | 86° |
| 2026-05-05 14:08 | 33.94208 | -117.41415 | 27690 ft | 452 kts | 86° |
| 2026-05-05 14:08 | 33.94424 | -117.38329 | 27886 ft | 455 kts | 86° |
| 2026-05-05 14:09 | 33.94644 | -117.35155 | 28101 ft | 457 kts | 86° |
| 2026-05-05 14:09 | 33.94859 | -117.32048 | 28293 ft | 459 kts | 87° |
| 2026-05-05 14:09 | 33.95075 | -117.28898 | 28483 ft | 461 kts | 87° |
| 2026-05-05 14:09 | 33.95289 | -117.25770 | 28696 ft | 462 kts | 87° |
| 2026-05-05 14:10 | 33.95508 | -117.22574 | 28939 ft | 462 kts | 87° |
| 2026-05-05 14:10 | 33.95723 | -117.19412 | 29180 ft | 463 kts | 87° |
| 2026-05-05 14:10 | 33.95948 | -117.16107 | 29414 ft | 463 kts | 88° |
| 2026-05-05 14:10 | 33.96190 | -117.12515 | 29662 ft | 464 kts | 88° |
| 2026-05-05 14:11 | 33.96442 | -117.08766 | 29914 ft | 464 kts | 88° |
| 2026-05-05 14:11 | 33.96693 | -117.05017 | 30146 ft | 466 kts | 88° |
| 2026-05-05 14:11 | 33.96945 | -117.01238 | 30359 ft | 467 kts | 88° |
| 2026-05-05 14:11 | 33.97197 | -116.97432 | 30577 ft | 468 kts | 88° |
| 2026-05-05 14:12 | 33.97451 | -116.93568 | 30778 ft | 469 kts | 88° |
| 2026-05-05 14:12 | 33.97700 | -116.89758 | 30963 ft | 471 kts | 88° |
| 2026-05-05 14:12 | 33.97946 | -116.85992 | 31150 ft | 472 kts | 88° |
| 2026-05-05 14:12 | 33.98195 | -116.82153 | 31318 ft | 474 kts | 88° |
| 2026-05-05 14:13 | 33.98446 | -116.78263 | 31517 ft | 475 kts | 88° |
| 2026-05-05 14:13 | 33.98699 | -116.74345 | 31717 ft | 476 kts | 89° |
| 2026-05-05 14:13 | 33.98923 | -116.70858 | 31876 ft | 478 kts | 88° |
| 2026-05-05 14:13 | 33.99134 | -116.67528 | 32030 ft | 479 kts | 89° |
| 2026-05-05 14:14 | 33.99345 | -116.64217 | 32196 ft | 479 kts | 89° |
| 2026-05-05 14:14 | 33.99551 | -116.60957 | 32364 ft | 479 kts | 89° |
| 2026-05-05 14:14 | 33.99761 | -116.57620 | 32540 ft | 480 kts | 89° |
| 2026-05-05 14:14 | 33.99968 | -116.54317 | 32688 ft | 480 kts | 89° |
| 2026-05-05 14:15 | 34.00174 | -116.51021 | 32826 ft | 482 kts | 89° |
| 2026-05-05 14:15 | 34.00381 | -116.47688 | 32957 ft | 483 kts | 89° |
| 2026-05-05 14:15 | 34.00592 | -116.44311 | 33110 ft | 484 kts | 89° |
| 2026-05-05 14:15 | 34.00796 | -116.40968 | 33278 ft | 485 kts | 89° |
| 2026-05-05 14:16 | 34.01003 | -116.37609 | 33470 ft | 485 kts | 89° |
| 2026-05-05 14:16 | 34.01211 | -116.34216 | 33684 ft | 485 kts | 90° |
| 2026-05-05 14:16 | 34.01413 | -116.30874 | 33881 ft | 485 kts | 90° |
| 2026-05-05 14:16 | 34.01617 | -116.27512 | 34052 ft | 485 kts | 90° |
| 2026-05-05 14:17 | 34.01819 | -116.24147 | 34194 ft | 486 kts | 90° |
| 2026-05-05 14:17 | 34.02020 | -116.20774 | 34335 ft | 486 kts | 90° |
| 2026-05-05 14:17 | 34.02220 | -116.17403 | 34475 ft | 487 kts | 90° |
| 2026-05-05 14:17 | 34.02425 | -116.13964 | 34606 ft | 488 kts | 90° |
| 2026-05-05 14:18 | 34.02625 | -116.10592 | 34729 ft | 489 kts | 90° |
| 2026-05-05 14:18 | 34.02824 | -116.07217 | 34857 ft | 490 kts | 90° |
| 2026-05-05 14:18 | 34.03223 | -116.00387 | 34925 ft | 492 kts | 90° |
| 2026-05-05 14:19 | 34.03621 | -115.93510 | 34930 ft | 492 kts | 90° |
| 2026-05-05 14:19 | 34.04014 | -115.86674 | 34923 ft | 493 kts | 90° |
| 2026-05-05 14:20 | 34.04407 | -115.79770 | 34930 ft | 494 kts | 90° |
| 2026-05-05 14:20 | 34.04793 | -115.72896 | 34933 ft | 494 kts | 91° |
| 2026-05-05 14:21 | 34.05179 | -115.65938 | 34932 ft | 496 kts | 91° |
| 2026-05-05 14:21 | 34.05563 | -115.58952 | 34929 ft | 497 kts | 91° |
| 2026-05-05 14:22 | 34.05943 | -115.51989 | 34929 ft | 498 kts | 91° |
| 2026-05-05 14:22 | 34.06324 | -115.44940 | 34929 ft | 500 kts | 91° |
| 2026-05-05 14:23 | 34.06700 | -115.37865 | 34923 ft | 500 kts | 91° |
| 2026-05-05 14:23 | 34.07071 | -115.30859 | 34921 ft | 502 kts | 92° |
| 2026-05-05 14:24 | 34.07442 | -115.23784 | 34906 ft | 502 kts | 92° |
| 2026-05-05 14:24 | 34.07802 | -115.16736 | 34911 ft | 503 kts | 92° |
| 2026-05-05 14:25 | 34.08163 | -115.09686 | 34909 ft | 505 kts | 92° |
| 2026-05-05 14:25 | 34.08526 | -115.02522 | 34913 ft | 506 kts | 93° |
| 2026-05-05 14:26 | 34.08878 | -114.95428 | 34917 ft | 506 kts | 93° |
| 2026-05-05 14:26 | 34.09261 | -114.87626 | 34919 ft | 508 kts | 93° |
| 2026-05-05 14:27 | 34.09609 | -114.80470 | 34917 ft | 508 kts | 93° |
| 2026-05-05 14:27 | 34.10036 | -114.73243 | 34927 ft | 510 kts | 90° |
| 2026-05-05 14:28 | 34.10995 | -114.66153 | 34916 ft | 518 kts | 83° |
| 2026-05-05 14:28 | 34.12614 | -114.59203 | 34924 ft | 522 kts | 76° |
| 2026-05-05 14:29 | 34.14626 | -114.52245 | 34917 ft | 524 kts | 74° |
| 2026-05-05 14:29 | 34.16621 | -114.45388 | 34917 ft | 525 kts | 75° |
| 2026-05-05 14:30 | 34.18593 | -114.38468 | 34919 ft | 525 kts | 76° |
| 2026-05-05 14:30 | 34.20586 | -114.31358 | 34918 ft | 525 kts | 76° |
| 2026-05-05 14:31 | 34.22569 | -114.24268 | 34924 ft | 526 kts | 76° |
| 2026-05-05 14:31 | 34.24573 | -114.17084 | 34928 ft | 527 kts | 77° |
| 2026-05-05 14:32 | 34.26560 | -114.09941 | 34932 ft | 526 kts | 76° |
| 2026-05-05 14:32 | 34.28557 | -114.02755 | 34941 ft | 528 kts | 76° |
| 2026-05-05 14:33 | 34.30558 | -113.95530 | 34927 ft | 529 kts | 76° |
| 2026-05-05 14:33 | 34.32555 | -113.88305 | 34925 ft | 530 kts | 76° |
| 2026-05-05 14:34 | 34.34580 | -113.80958 | 34936 ft | 530 kts | 76° |
| 2026-05-05 14:34 | 34.36583 | -113.73665 | 34936 ft | 530 kts | 77° |
| 2026-05-05 14:35 | 34.38598 | -113.66306 | 34937 ft | 531 kts | 76° |
| 2026-05-05 14:35 | 34.40594 | -113.58994 | 34819 ft | 532 kts | 76° |
| 2026-05-05 14:36 | 34.42597 | -113.51634 | 34940 ft | 535 kts | 76° |
| 2026-05-05 14:36 | 34.44615 | -113.44219 | 34969 ft | 535 kts | 77° |
| 2026-05-05 14:37 | 34.46637 | -113.36776 | 34980 ft | 535 kts | 77° |
| 2026-05-05 14:37 | 34.48661 | -113.29291 | 34921 ft | 536 kts | 77° |
| 2026-05-05 14:38 | 34.50831 | -113.21227 | 34921 ft | 536 kts | 77° |
| 2026-05-05 14:38 | 34.53114 | -113.12716 | 34939 ft | 539 kts | 77° |
| 2026-05-05 14:39 | 34.55432 | -113.04069 | 35172 ft | 540 kts | 77° |
| 2026-05-05 14:39 | 34.56563 | -112.99843 | 35044 ft | 538 kts | 78° |
| 2026-05-05 14:39 | 34.57710 | -112.95540 | 35003 ft | 539 kts | 77° |
| 2026-05-05 14:40 | 34.59988 | -112.86980 | 34974 ft | 540 kts | 77° |
| 2026-05-05 14:40 | 34.62224 | -112.78553 | 34983 ft | 540 kts | 78° |
| 2026-05-05 14:41 | 34.64483 | -112.70007 | 34986 ft | 540 kts | 77° |
| 2026-05-05 14:41 | 34.66698 | -112.61591 | 34997 ft | 542 kts | 77° |
| 2026-05-05 14:42 | 34.68921 | -112.53157 | 35003 ft | 541 kts | 78° |
| 2026-05-05 14:42 | 34.71064 | -112.44797 | 35005 ft | 541 kts | 79° |
| 2026-05-05 14:43 | 34.72982 | -112.36463 | 35013 ft | 541 kts | 80° |
| 2026-05-05 14:43 | 34.74931 | -112.27841 | 35005 ft | 541 kts | 81° |
| 2026-05-05 14:44 | 34.76890 | -112.19223 | 34997 ft | 541 kts | 81° |
| 2026-05-05 14:44 | 34.78882 | -112.10486 | 35000 ft | 542 kts | 81° |
| 2026-05-05 14:45 | 34.80838 | -112.01879 | 35001 ft | 543 kts | 81° |
| 2026-05-05 14:45 | 34.82822 | -111.93124 | 35000 ft | 543 kts | 81° |
| 2026-05-05 14:46 | 34.84780 | -111.84454 | 35005 ft | 543 kts | 81° |
| 2026-05-05 14:46 | 34.86751 | -111.75691 | 35011 ft | 543 kts | 81° |
| 2026-05-05 14:47 | 34.88734 | -111.66848 | 35016 ft | 544 kts | 81° |
| 2026-05-05 14:47 | 34.90662 | -111.58195 | 35023 ft | 545 kts | 81° |
| 2026-05-05 14:48 | 34.92351 | -111.50615 | 35019 ft | 545 kts | 81° |
| 2026-05-05 14:48 | 34.94034 | -111.43037 | 35010 ft | 544 kts | 81° |
| 2026-05-05 14:49 | 34.95697 | -111.34944 | 34999 ft | 542 kts | 84° |
| 2026-05-05 14:49 | 34.97279 | -111.25985 | 34996 ft | 540 kts | 85° |
| 2026-05-05 14:50 | 34.98823 | -111.17047 | 35002 ft | 542 kts | 85° |
| 2026-05-05 14:50 | 35.00387 | -111.08057 | 35007 ft | 541 kts | 85° |
| 2026-05-05 14:51 | 35.01847 | -110.99702 | 35015 ft | 540 kts | 85° |
| 2026-05-05 14:51 | 35.03173 | -110.92044 | 35017 ft | 541 kts | 85° |
| 2026-05-05 14:52 | 35.04509 | -110.84301 | 35019 ft | 542 kts | 85° |
| 2026-05-05 14:52 | 35.05847 | -110.76541 | 35009 ft | 542 kts | 84° |
| 2026-05-05 14:53 | 35.07185 | -110.68760 | 35011 ft | 543 kts | 85° |
| 2026-05-05 14:53 | 35.08561 | -110.60705 | 35008 ft | 543 kts | 84° |
| 2026-05-05 14:54 | 35.09887 | -110.52912 | 35013 ft | 543 kts | 84° |
| 2026-05-05 14:54 | 35.11232 | -110.44965 | 35011 ft | 544 kts | 84° |
| 2026-05-05 14:55 | 35.12559 | -110.37106 | 35011 ft | 543 kts | 84° |
| 2026-05-05 14:55 | 35.13882 | -110.29250 | 35009 ft | 543 kts | 85° |
| 2026-05-05 14:56 | 35.15150 | -110.21690 | 35009 ft | 542 kts | 85° |
| 2026-05-05 14:56 | 35.16434 | -110.13957 | 35008 ft | 543 kts | 85° |
| 2026-05-05 14:57 | 35.17705 | -110.06300 | 35007 ft | 543 kts | 85° |
| 2026-05-05 14:57 | 35.18970 | -109.98656 | 35006 ft | 543 kts | 85° |
| 2026-05-05 14:58 | 35.20238 | -109.90963 | 35008 ft | 543 kts | 85° |
| 2026-05-05 14:58 | 35.21487 | -109.83337 | 35008 ft | 543 kts | 85° |
| 2026-05-05 14:59 | 35.22740 | -109.75660 | 35013 ft | 543 kts | 84° |
| 2026-05-05 14:59 | 35.23982 | -109.68040 | 35022 ft | 543 kts | 85° |
| 2026-05-05 15:00 | 35.25013 | -109.61652 | 35023 ft | 544 kts | 84° |
| 2026-05-05 15:00 | 35.26434 | -109.52850 | 35026 ft | 544 kts | 84° |
| 2026-05-05 15:01 | 35.27661 | -109.45209 | 35027 ft | 544 kts | 84° |
| 2026-05-05 15:01 | 35.28864 | -109.37703 | 35030 ft | 544 kts | 85° |
| 2026-05-05 15:02 | 35.30057 | -109.30202 | 35033 ft | 544 kts | 85° |
| 2026-05-05 15:02 | 35.31250 | -109.22686 | 35038 ft | 544 kts | 85° |
| 2026-05-05 15:03 | 35.32430 | -109.15205 | 35047 ft | 544 kts | 85° |
| 2026-05-05 15:03 | 35.33615 | -109.07662 | 35046 ft | 545 kts | 85° |
| 2026-05-05 15:04 | 35.34786 | -109.00201 | 35046 ft | 544 kts | 85° |
| 2026-05-05 15:04 | 35.35954 | -108.92709 | 35054 ft | 544 kts | 85° |
| 2026-05-05 15:05 | 35.37706 | -108.81400 | 35056 ft | 545 kts | 85° |
| 2026-05-05 15:06 | 35.38860 | -108.73937 | 35057 ft | 543 kts | 85° |
| 2026-05-05 15:06 | 35.40009 | -108.66444 | 35057 ft | 543 kts | 85° |
| 2026-05-05 15:07 | 35.41148 | -108.59010 | 35057 ft | 543 kts | 85° |
| 2026-05-05 15:07 | 35.42289 | -108.51501 | 35056 ft | 543 kts | 85° |
| 2026-05-05 15:08 | 35.43427 | -108.43999 | 35053 ft | 542 kts | 85° |
| 2026-05-05 15:08 | 35.44556 | -108.36510 | 35047 ft | 542 kts | 85° |
| 2026-05-05 15:09 | 35.45695 | -108.28952 | 35044 ft | 541 kts | 85° |
| 2026-05-05 15:09 | 35.46820 | -108.21448 | 35043 ft | 540 kts | 85° |
| 2026-05-05 15:10 | 35.47934 | -108.13960 | 35046 ft | 539 kts | 85° |
| 2026-05-05 15:10 | 35.49041 | -108.06486 | 35044 ft | 540 kts | 85° |
| 2026-05-05 15:11 | 35.50137 | -107.99032 | 35041 ft | 540 kts | 85° |
| 2026-05-05 15:11 | 35.51216 | -107.91511 | 35042 ft | 540 kts | 85° |
| 2026-05-05 15:12 | 35.52272 | -107.83991 | 35041 ft | 540 kts | 85° |
| 2026-05-05 15:12 | 35.53326 | -107.76484 | 35043 ft | 540 kts | 85° |
| 2026-05-05 15:13 | 35.54371 | -107.69017 | 35047 ft | 540 kts | 85° |
| 2026-05-05 15:13 | 35.55421 | -107.61491 | 35050 ft | 539 kts | 85° |
| 2026-05-05 15:14 | 35.56464 | -107.53944 | 35050 ft | 540 kts | 85° |
| 2026-05-05 15:14 | 35.57500 | -107.46431 | 35046 ft | 540 kts | 85° |
| 2026-05-05 15:15 | 35.58533 | -107.38931 | 35045 ft | 539 kts | 85° |
| 2026-05-05 15:15 | 35.59562 | -107.31406 | 35043 ft | 539 kts | 85° |
| 2026-05-05 15:16 | 35.60572 | -107.23951 | 35053 ft | 539 kts | 85° |
| 2026-05-05 15:16 | 35.61595 | -107.16408 | 35056 ft | 539 kts | 85° |
| 2026-05-05 15:17 | 35.62610 | -107.08910 | 35057 ft | 537 kts | 85° |
| 2026-05-05 15:17 | 35.63605 | -107.01466 | 35055 ft | 538 kts | 85° |
| 2026-05-05 15:18 | 35.64612 | -106.93909 | 35062 ft | 538 kts | 85° |
| 2026-05-05 15:18 | 35.65604 | -106.86480 | 35054 ft | 537 kts | 85° |
| 2026-05-05 15:19 | 35.66589 | -106.78984 | 35055 ft | 538 kts | 85° |
| 2026-05-05 15:19 | 35.67580 | -106.71452 | 35056 ft | 537 kts | 85° |
| 2026-05-05 15:20 | 35.68562 | -106.63967 | 35052 ft | 536 kts | 85° |
| 2026-05-05 15:20 | 35.69532 | -106.56501 | 35052 ft | 536 kts | 85° |
| 2026-05-05 15:21 | 35.70513 | -106.48933 | 35052 ft | 537 kts | 84° |
| 2026-05-05 15:21 | 35.71476 | -106.41471 | 35051 ft | 536 kts | 84° |
| 2026-05-05 15:22 | 35.72429 | -106.34034 | 35047 ft | 536 kts | 85° |
| 2026-05-05 15:22 | 35.73399 | -106.26472 | 35047 ft | 535 kts | 85° |
| 2026-05-05 15:23 | 35.74345 | -106.18996 | 35039 ft | 535 kts | 85° |
| 2026-05-05 15:23 | 35.75293 | -106.11512 | 35038 ft | 534 kts | 85° |
| 2026-05-05 15:24 | 35.76220 | -106.04082 | 35034 ft | 535 kts | 85° |
| 2026-05-05 15:24 | 35.77162 | -105.96566 | 35027 ft | 534 kts | 85° |
| 2026-05-05 15:25 | 35.78096 | -105.89060 | 35032 ft | 534 kts | 85° |
| 2026-05-05 15:25 | 35.79015 | -105.81627 | 35027 ft | 534 kts | 85° |
| 2026-05-05 15:26 | 35.79949 | -105.74045 | 35031 ft | 535 kts | 85° |
| 2026-05-05 15:26 | 35.80877 | -105.66460 | 35025 ft | 535 kts | 85° |
| 2026-05-05 15:27 | 35.81792 | -105.58933 | 35022 ft | 535 kts | 85° |
| 2026-05-05 15:27 | 35.82713 | -105.51333 | 35033 ft | 536 kts | 85° |
| 2026-05-05 15:28 | 35.83637 | -105.43662 | 35048 ft | 537 kts | 85° |
| 2026-05-05 15:28 | 35.84551 | -105.36047 | 35051 ft | 536 kts | 85° |
| 2026-05-05 15:29 | 35.85469 | -105.28334 | 35061 ft | 536 kts | 85° |
| 2026-05-05 15:29 | 35.86364 | -105.20790 | 35053 ft | 536 kts | 86° |
| 2026-05-05 15:30 | 35.87267 | -105.13111 | 35064 ft | 536 kts | 85° |
| 2026-05-05 15:30 | 35.88149 | -105.05567 | 35065 ft | 536 kts | 85° |
| 2026-05-05 15:31 | 35.89043 | -104.97891 | 35057 ft | 536 kts | 85° |
| 2026-05-05 15:31 | 35.89925 | -104.90265 | 35053 ft | 537 kts | 85° |
| 2026-05-05 15:32 | 35.90802 | -104.82641 | 35037 ft | 537 kts | 85° |
| 2026-05-05 15:32 | 35.91678 | -104.74990 | 35025 ft | 537 kts | 85° |
| 2026-05-05 15:33 | 35.92548 | -104.67367 | 35011 ft | 537 kts | 85° |
| 2026-05-05 15:33 | 35.93428 | -104.59570 | 35014 ft | 537 kts | 85° |
| 2026-05-05 15:34 | 35.94295 | -104.51884 | 35016 ft | 537 kts | 85° |
| 2026-05-05 15:34 | 35.95133 | -104.44377 | 34999 ft | 536 kts | 85° |
| 2026-05-05 15:35 | 35.95977 | -104.36784 | 34993 ft | 537 kts | 85° |
| 2026-05-05 15:35 | 35.96812 | -104.29192 | 34988 ft | 537 kts | 85° |
| 2026-05-05 15:36 | 35.97646 | -104.21657 | 34990 ft | 536 kts | 86° |
| 2026-05-05 15:36 | 35.98469 | -104.14087 | 34985 ft | 537 kts | 85° |
| 2026-05-05 15:37 | 35.99293 | -104.06560 | 34988 ft | 536 kts | 85° |
| 2026-05-05 15:37 | 35.99989 | -103.99019 | 34981 ft | 535 kts | 90° |
| 2026-05-05 15:38 | 36.00210 | -103.91496 | 34979 ft | 534 kts | 93° |
| 2026-05-05 15:38 | 36.00298 | -103.83833 | 34984 ft | 533 kts | 93° |
| 2026-05-05 15:39 | 36.00381 | -103.76138 | 34982 ft | 534 kts | 94° |
| 2026-05-05 15:39 | 36.00474 | -103.68488 | 34984 ft | 534 kts | 93° |
| 2026-05-05 15:40 | 36.00574 | -103.60922 | 34978 ft | 535 kts | 94° |
| 2026-05-05 15:40 | 36.00671 | -103.53325 | 34965 ft | 536 kts | 93° |
| 2026-05-05 15:41 | 36.00771 | -103.45605 | 34963 ft | 535 kts | 92° |
| 2026-05-05 15:41 | 36.00860 | -103.37993 | 34963 ft | 536 kts | 93° |
| 2026-05-05 15:42 | 36.00962 | -103.29060 | 34962 ft | 536 kts | 94° |
| 2026-05-05 15:42 | 36.01050 | -103.20635 | 34971 ft | 536 kts | 94° |
| 2026-05-05 15:43 | 36.01120 | -103.13049 | 34963 ft | 536 kts | 94° |
| 2026-05-05 15:43 | 36.01193 | -103.05409 | 34955 ft | 536 kts | 94° |
| 2026-05-05 15:44 | 36.01252 | -102.97813 | 34959 ft | 536 kts | 94° |
| 2026-05-05 15:44 | 36.01313 | -102.90173 | 34951 ft | 536 kts | 93° |
| 2026-05-05 15:45 | 36.01368 | -102.82486 | 34959 ft | 537 kts | 94° |
| 2026-05-05 15:45 | 36.01419 | -102.74761 | 34958 ft | 538 kts | 94° |
| 2026-05-05 15:46 | 36.01465 | -102.66972 | 34953 ft | 537 kts | 94° |
| 2026-05-05 15:46 | 36.01503 | -102.59184 | 34963 ft | 540 kts | 92° |
| 2026-05-05 15:47 | 36.01545 | -102.51383 | 34959 ft | 538 kts | 92° |
| 2026-05-05 15:47 | 36.01574 | -102.43483 | 34959 ft | 540 kts | 93° |
| 2026-05-05 15:48 | 36.01599 | -102.35527 | 34953 ft | 540 kts | 94° |
| 2026-05-05 15:48 | 36.01622 | -102.27586 | 34943 ft | 540 kts | 94° |
| 2026-05-05 15:49 | 36.01637 | -102.19530 | 34941 ft | 540 kts | 94° |
| 2026-05-05 15:49 | 36.01640 | -102.11573 | 34943 ft | 540 kts | 94° |
| 2026-05-05 15:50 | 36.01644 | -102.03606 | 34949 ft | 540 kts | 94° |
| 2026-05-05 15:50 | 36.01646 | -101.95576 | 34941 ft | 541 kts | 94° |
| 2026-05-05 15:51 | 36.01643 | -101.87661 | 34940 ft | 542 kts | 94° |
| 2026-05-05 15:51 | 36.01634 | -101.79658 | 34931 ft | 542 kts | 94° |
| 2026-05-05 15:52 | 36.01616 | -101.71819 | 34935 ft | 542 kts | 94° |
| 2026-05-05 15:52 | 36.01603 | -101.64014 | 34923 ft | 542 kts | 94° |
| 2026-05-05 15:53 | 36.01569 | -101.56126 | 34924 ft | 542 kts | 93° |
| 2026-05-05 15:53 | 36.01537 | -101.48257 | 34913 ft | 543 kts | 93° |
| 2026-05-05 15:54 | 36.01503 | -101.40420 | 34911 ft | 544 kts | 94° |
| 2026-05-05 15:54 | 36.01465 | -101.32478 | 34898 ft | 545 kts | 94° |
| 2026-05-05 15:55 | 36.01419 | -101.24657 | 34906 ft | 545 kts | 94° |
| 2026-05-05 15:55 | 36.01367 | -101.16810 | 34894 ft | 545 kts | 94° |
| 2026-05-05 15:56 | 36.01307 | -101.08910 | 34895 ft | 545 kts | 94° |
| 2026-05-05 15:56 | 36.01242 | -101.01047 | 34898 ft | 546 kts | 94° |
| 2026-05-05 15:57 | 36.01178 | -100.93167 | 34899 ft | 546 kts | 94° |
| 2026-05-05 15:57 | 36.01103 | -100.85201 | 34907 ft | 546 kts | 93° |
| 2026-05-05 15:58 | 36.01029 | -100.77359 | 34911 ft | 545 kts | 94° |
| 2026-05-05 15:58 | 36.00946 | -100.69397 | 34909 ft | 545 kts | 94° |
| 2026-05-05 15:59 | 36.00854 | -100.61480 | 34906 ft | 546 kts | 94° |
| 2026-05-05 15:59 | 36.00765 | -100.53552 | 34909 ft | 545 kts | 94° |
| 2026-05-05 16:00 | 36.00664 | -100.45646 | 34912 ft | 545 kts | 94° |
| 2026-05-05 16:00 | 36.00554 | -100.37737 | 34898 ft | 546 kts | 93° |
| 2026-05-05 16:01 | 36.00456 | -100.29965 | 34903 ft | 544 kts | 95° |
| 2026-05-05 16:01 | 36.00337 | -100.22105 | 34900 ft | 545 kts | 94° |
| 2026-05-05 16:02 | 36.00223 | -100.14317 | 34892 ft | 545 kts | 94° |
| 2026-05-05 16:02 | 36.00097 | -100.06485 | 34892 ft | 545 kts | 94° |
| 2026-05-05 16:03 | 35.99977 | -99.98617 | 34888 ft | 546 kts | 94° |
| 2026-05-05 16:03 | 36.00010 | -99.90728 | 34882 ft | 546 kts | 91° |
| 2026-05-05 16:04 | 36.00094 | -99.82902 | 34879 ft | 546 kts | 91° |
| 2026-05-05 16:04 | 36.00166 | -99.75091 | 34864 ft | 547 kts | 92° |
| 2026-05-05 16:05 | 36.00219 | -99.67287 | 34868 ft | 547 kts | 91° |
| 2026-05-05 16:05 | 36.00260 | -99.59397 | 34869 ft | 547 kts | 92° |
| 2026-05-05 16:06 | 36.00297 | -99.51567 | 34860 ft | 547 kts | 91° |
| 2026-05-05 16:06 | 36.00331 | -99.43687 | 34860 ft | 547 kts | 91° |
| 2026-05-05 16:07 | 36.00352 | -99.35847 | 34853 ft | 547 kts | 91° |
| 2026-05-05 16:07 | 36.00376 | -99.28028 | 34846 ft | 548 kts | 92° |
| 2026-05-05 16:08 | 36.00393 | -99.20137 | 34842 ft | 548 kts | 92° |
| 2026-05-05 16:08 | 36.00398 | -99.12291 | 34838 ft | 548 kts | 92° |
| 2026-05-05 16:09 | 36.00405 | -99.04454 | 34845 ft | 550 kts | 92° |
| 2026-05-05 16:09 | 36.00405 | -98.96551 | 34855 ft | 550 kts | 91° |
| 2026-05-05 16:10 | 36.00404 | -98.87756 | 34854 ft | 549 kts | 92° |
| 2026-05-05 16:10 | 36.00388 | -98.78484 | 34849 ft | 550 kts | 91° |
| 2026-05-05 16:11 | 36.00368 | -98.69253 | 34836 ft | 549 kts | 91° |
| 2026-05-05 16:12 | 36.00309 | -98.50542 | 34834 ft | 549 kts | 91° |
| 2026-05-05 16:13 | 36.00191 | -98.27296 | 34826 ft | 549 kts | 92° |
| 2026-05-05 16:13 | 36.00131 | -98.18043 | 34829 ft | 550 kts | 92° |
| 2026-05-05 16:14 | 35.99814 | -97.99214 | 34811 ft | 549 kts | 98° |
| 2026-05-05 16:15 | 35.97428 | -97.80808 | 34803 ft | 544 kts | 103° |
| 2026-05-05 16:16 | 35.94863 | -97.62425 | 34786 ft | 545 kts | 102° |
| 2026-05-05 16:17 | 35.93041 | -97.49228 | 34775 ft | 546 kts | 103° |
| 2026-05-05 16:18 | 35.91442 | -97.37753 | 34770 ft | 546 kts | 103° |
| 2026-05-05 16:19 | 35.89828 | -97.26271 | 34768 ft | 545 kts | 103° |
| 2026-05-05 16:19 | 35.87963 | -97.13090 | 34765 ft | 544 kts | 103° |
| 2026-05-05 16:20 | 35.85394 | -96.95139 | 34758 ft | 544 kts | 103° |
| 2026-05-05 16:22 | 35.82205 | -96.73081 | 34757 ft | 544 kts | 102° |
| 2026-05-05 16:23 | 35.79619 | -96.55360 | 34741 ft | 543 kts | 103° |
| 2026-05-05 16:23 | 35.77641 | -96.41998 | 34733 ft | 543 kts | 102° |
| 2026-05-05 16:24 | 35.76325 | -96.33135 | 34726 ft | 543 kts | 103° |
| 2026-05-05 16:25 | 35.74594 | -96.21573 | 34734 ft | 542 kts | 102° |
| 2026-05-05 16:25 | 35.72858 | -96.10055 | 34736 ft | 542 kts | 102° |
| 2026-05-05 16:26 | 35.70531 | -95.94693 | 34744 ft | 542 kts | 102° |
| 2026-05-05 16:27 | 35.69374 | -95.86999 | 34747 ft | 542 kts | 101° |
| 2026-05-05 16:27 | 35.68561 | -95.79234 | 34743 ft | 542 kts | 97° |
| 2026-05-05 16:28 | 35.67878 | -95.71469 | 34741 ft | 543 kts | 96° |
| 2026-05-05 16:28 | 35.67194 | -95.63708 | 34736 ft | 542 kts | 96° |
| 2026-05-05 16:29 | 35.66490 | -95.55981 | 34732 ft | 543 kts | 97° |
| 2026-05-05 16:29 | 35.65765 | -95.48202 | 34735 ft | 543 kts | 97° |
| 2026-05-05 16:30 | 35.65037 | -95.40396 | 34739 ft | 544 kts | 97° |
| 2026-05-05 16:30 | 35.64188 | -95.31381 | 34731 ft | 543 kts | 97° |
| 2026-05-05 16:31 | 35.63320 | -95.22315 | 34732 ft | 544 kts | 97° |
| 2026-05-05 16:31 | 35.62446 | -95.13224 | 34726 ft | 543 kts | 97° |
| 2026-05-05 16:32 | 35.61578 | -95.04249 | 34736 ft | 542 kts | 97° |
| 2026-05-05 16:32 | 35.60718 | -94.95401 | 34739 ft | 542 kts | 97° |
| 2026-05-05 16:33 | 35.59864 | -94.86685 | 34734 ft | 542 kts | 97° |
| 2026-05-05 16:33 | 35.58994 | -94.77895 | 34736 ft | 541 kts | 97° |
| 2026-05-05 16:34 | 35.58107 | -94.69057 | 34750 ft | 541 kts | 97° |
| 2026-05-05 16:34 | 35.57211 | -94.60154 | 34738 ft | 542 kts | 97° |
| 2026-05-05 16:35 | 35.56315 | -94.51265 | 34747 ft | 542 kts | 97° |
| 2026-05-05 16:35 | 35.55409 | -94.42412 | 34752 ft | 541 kts | 96° |
| 2026-05-05 16:36 | 35.54497 | -94.33478 | 34746 ft | 542 kts | 97° |
| 2026-05-05 16:36 | 35.53575 | -94.24593 | 34747 ft | 541 kts | 97° |
| 2026-05-05 16:37 | 35.52648 | -94.15691 | 34748 ft | 541 kts | 97° |
| 2026-05-05 16:37 | 35.51710 | -94.06775 | 34752 ft | 541 kts | 97° |
| 2026-05-05 16:38 | 35.50856 | -93.98711 | 34750 ft | 541 kts | 97° |
| 2026-05-05 16:38 | 35.49918 | -93.89889 | 34750 ft | 541 kts | 97° |
| 2026-05-05 16:39 | 35.48952 | -93.80936 | 34754 ft | 540 kts | 97° |
| 2026-05-05 16:39 | 35.47971 | -93.71858 | 34762 ft | 540 kts | 97° |
| 2026-05-05 16:40 | 35.46989 | -93.62797 | 34768 ft | 540 kts | 97° |
| 2026-05-05 16:40 | 35.46009 | -93.53861 | 34761 ft | 540 kts | 97° |
| 2026-05-05 16:41 | 35.45014 | -93.44831 | 34773 ft | 541 kts | 97° |
| 2026-05-05 16:41 | 35.44159 | -93.37123 | 34779 ft | 541 kts | 97° |
| 2026-05-05 16:42 | 35.43305 | -93.29469 | 34769 ft | 539 kts | 98° |
| 2026-05-05 16:42 | 35.42456 | -93.21887 | 34773 ft | 540 kts | 97° |
| 2026-05-05 16:43 | 35.41594 | -93.14282 | 34784 ft | 539 kts | 97° |
| 2026-05-05 16:43 | 35.40726 | -93.06677 | 34785 ft | 539 kts | 97° |
| 2026-05-05 16:44 | 35.39864 | -92.99101 | 34778 ft | 538 kts | 97° |
| 2026-05-05 16:44 | 35.38992 | -92.91521 | 34775 ft | 540 kts | 97° |
| 2026-05-05 16:45 | 35.38105 | -92.83853 | 34778 ft | 539 kts | 97° |
| 2026-05-05 16:45 | 35.37230 | -92.76308 | 34770 ft | 539 kts | 97° |
| 2026-05-05 16:46 | 35.36341 | -92.68715 | 34779 ft | 540 kts | 97° |
| 2026-05-05 16:46 | 35.35451 | -92.61163 | 34778 ft | 540 kts | 96° |
| 2026-05-05 16:47 | 35.34552 | -92.53561 | 34785 ft | 539 kts | 97° |
| 2026-05-05 16:47 | 35.33649 | -92.45938 | 34792 ft | 539 kts | 97° |
| 2026-05-05 16:48 | 35.32748 | -92.38364 | 34796 ft | 538 kts | 97° |
| 2026-05-05 16:48 | 35.31834 | -92.30785 | 34793 ft | 539 kts | 97° |
| 2026-05-05 16:49 | 35.30910 | -92.23144 | 34798 ft | 538 kts | 97° |
| 2026-05-05 16:49 | 35.29993 | -92.15598 | 34796 ft | 538 kts | 97° |
| 2026-05-05 16:50 | 35.29023 | -92.07669 | 34785 ft | 537 kts | 97° |
| 2026-05-05 16:50 | 35.27925 | -91.98722 | 34791 ft | 537 kts | 97° |
| 2026-05-05 16:51 | 35.26810 | -91.89741 | 34797 ft | 537 kts | 97° |
| 2026-05-05 16:51 | 35.25686 | -91.80673 | 34823 ft | 537 kts | 96° |
| 2026-05-05 16:52 | 35.24560 | -91.71663 | 34825 ft | 536 kts | 97° |
| 2026-05-05 16:52 | 35.23426 | -91.62678 | 34830 ft | 536 kts | 97° |
| 2026-05-05 16:53 | 35.22299 | -91.53749 | 34829 ft | 537 kts | 96° |
| 2026-05-05 16:53 | 35.21147 | -91.44749 | 34831 ft | 536 kts | 97° |
| 2026-05-05 16:54 | 35.19992 | -91.35724 | 34826 ft | 535 kts | 96° |
| 2026-05-05 16:54 | 35.18912 | -91.27327 | 34829 ft | 536 kts | 97° |
| 2026-05-05 16:55 | 35.17947 | -91.19889 | 34829 ft | 535 kts | 97° |
| 2026-05-05 16:55 | 35.16975 | -91.12412 | 34835 ft | 535 kts | 97° |
| 2026-05-05 16:56 | 35.15984 | -91.04896 | 34835 ft | 535 kts | 97° |
| 2026-05-05 16:56 | 35.14988 | -90.97332 | 34843 ft | 535 kts | 97° |
| 2026-05-05 16:57 | 35.14006 | -90.89868 | 34849 ft | 534 kts | 97° |
| 2026-05-05 16:57 | 35.13015 | -90.82441 | 34853 ft | 534 kts | 96° |
| 2026-05-05 16:58 | 35.12015 | -90.74977 | 34857 ft | 533 kts | 96° |
| 2026-05-05 16:58 | 35.11017 | -90.67478 | 34860 ft | 534 kts | 97° |
| 2026-05-05 16:59 | 35.10010 | -90.60024 | 34861 ft | 534 kts | 97° |
| 2026-05-05 16:59 | 35.08999 | -90.52600 | 34866 ft | 532 kts | 96° |
| 2026-05-05 17:00 | 35.07994 | -90.45206 | 34865 ft | 533 kts | 96° |
| 2026-05-05 17:00 | 35.06982 | -90.37812 | 34869 ft | 532 kts | 96° |
| 2026-05-05 17:01 | 35.05969 | -90.30402 | 34868 ft | 532 kts | 98° |
| 2026-05-05 17:01 | 35.04930 | -90.22909 | 34873 ft | 532 kts | 97° |
| 2026-05-05 17:02 | 35.03879 | -90.15347 | 34874 ft | 532 kts | 96° |
| 2026-05-05 17:02 | 35.02848 | -90.07922 | 34876 ft | 531 kts | 96° |
| 2026-05-05 17:03 | 35.01797 | -90.00404 | 34889 ft | 531 kts | 97° |
| 2026-05-05 17:03 | 35.00751 | -89.92934 | 34889 ft | 529 kts | 97° |
| 2026-05-05 17:04 | 34.99677 | -89.85211 | 34898 ft | 529 kts | 97° |
| 2026-05-05 17:04 | 34.98493 | -89.76810 | 34896 ft | 528 kts | 97° |
| 2026-05-05 17:05 | 34.97280 | -89.68227 | 34898 ft | 528 kts | 96° |
| 2026-05-05 17:05 | 34.96065 | -89.59620 | 34897 ft | 527 kts | 97° |
| 2026-05-05 17:06 | 34.94864 | -89.51221 | 34902 ft | 527 kts | 96° |
| 2026-05-05 17:06 | 34.93653 | -89.42728 | 34907 ft | 525 kts | 97° |
| 2026-05-05 17:07 | 34.92401 | -89.34081 | 34903 ft | 525 kts | 97° |
| 2026-05-05 17:07 | 34.91171 | -89.25583 | 34906 ft | 525 kts | 97° |
| 2026-05-05 17:08 | 34.89923 | -89.16975 | 34910 ft | 523 kts | 97° |
| 2026-05-05 17:08 | 34.88660 | -89.08371 | 34904 ft | 522 kts | 97° |
| 2026-05-05 17:09 | 34.87403 | -88.99824 | 34917 ft | 522 kts | 97° |
| 2026-05-05 17:09 | 34.86142 | -88.91305 | 34913 ft | 522 kts | 97° |
| 2026-05-05 17:10 | 34.84888 | -88.82832 | 34915 ft | 522 kts | 97° |
| 2026-05-05 17:10 | 34.83653 | -88.74545 | 34921 ft | 523 kts | 97° |
| 2026-05-05 17:11 | 34.82364 | -88.65951 | 34927 ft | 523 kts | 97° |
| 2026-05-05 17:11 | 34.81074 | -88.57402 | 34934 ft | 523 kts | 97° |
| 2026-05-05 17:12 | 34.79762 | -88.48789 | 34935 ft | 523 kts | 97° |
| 2026-05-05 17:12 | 34.78463 | -88.40230 | 34933 ft | 523 kts | 97° |
| 2026-05-05 17:13 | 34.77158 | -88.31686 | 34928 ft | 523 kts | 98° |
| 2026-05-05 17:13 | 34.75817 | -88.22983 | 34939 ft | 523 kts | 98° |
| 2026-05-05 17:14 | 34.74488 | -88.14356 | 34939 ft | 523 kts | 98° |
| 2026-05-05 17:14 | 34.73146 | -88.05717 | 34946 ft | 523 kts | 98° |
| 2026-05-05 17:15 | 34.71817 | -87.97214 | 34950 ft | 522 kts | 98° |
| 2026-05-05 17:15 | 34.70488 | -87.88696 | 34946 ft | 524 kts | 97° |
| 2026-05-05 17:16 | 34.69146 | -87.80190 | 34957 ft | 523 kts | 98° |
| 2026-05-05 17:16 | 34.67820 | -87.71802 | 34965 ft | 521 kts | 97° |
| 2026-05-05 17:17 | 34.66676 | -87.64619 | 34721 ft | 522 kts | 97° |
| 2026-05-05 17:17 | 34.66111 | -87.61047 | 34479 ft | 521 kts | 98° |
| 2026-05-05 17:17 | 34.65519 | -87.57325 | 34241 ft | 523 kts | 98° |
| 2026-05-05 17:18 | 34.64843 | -87.53114 | 33969 ft | 523 kts | 98° |
| 2026-05-05 17:18 | 34.64162 | -87.48862 | 33698 ft | 523 kts | 98° |
| 2026-05-05 17:18 | 34.63481 | -87.44647 | 33431 ft | 523 kts | 98° |
| 2026-05-05 17:18 | 34.62843 | -87.40788 | 33202 ft | 523 kts | 99° |
| 2026-05-05 17:19 | 34.62203 | -87.37214 | 33006 ft | 522 kts | 99° |
| 2026-05-05 17:19 | 34.61554 | -87.33730 | 32977 ft | 521 kts | 100° |
| 2026-05-05 17:19 | 34.60085 | -87.25864 | 32984 ft | 521 kts | 101° |
| 2026-05-05 17:20 | 34.58519 | -87.17439 | 32984 ft | 519 kts | 99° |
| 2026-05-05 17:20 | 34.57032 | -87.09387 | 32993 ft | 519 kts | 99° |
| 2026-05-05 17:21 | 34.55564 | -87.00912 | 32999 ft | 518 kts | 99° |
| 2026-05-05 17:22 | 34.52997 | -86.88301 | 33003 ft | 519 kts | 105° |
| 2026-05-05 17:22 | 34.50849 | -86.80189 | 33002 ft | 520 kts | 106° |
| 2026-05-05 17:23 | 34.48689 | -86.71980 | 32999 ft | 520 kts | 105° |
| 2026-05-05 17:23 | 34.46835 | -86.64861 | 32994 ft | 519 kts | 105° |
| 2026-05-05 17:24 | 34.45031 | -86.57961 | 32996 ft | 519 kts | 106° |
| 2026-05-05 17:24 | 34.43219 | -86.51074 | 32999 ft | 519 kts | 105° |
| 2026-05-05 17:25 | 34.41388 | -86.44126 | 32995 ft | 519 kts | 105° |
| 2026-05-05 17:25 | 34.39586 | -86.37283 | 33000 ft | 518 kts | 105° |
| 2026-05-05 17:26 | 34.37756 | -86.30363 | 33002 ft | 518 kts | 106° |
| 2026-05-05 17:26 | 34.35938 | -86.23495 | 33005 ft | 518 kts | 106° |
| 2026-05-05 17:27 | 34.34134 | -86.16708 | 33008 ft | 517 kts | 106° |
| 2026-05-05 17:27 | 34.32329 | -86.09862 | 33010 ft | 516 kts | 106° |
| 2026-05-05 17:28 | 34.30561 | -86.03016 | 33016 ft | 517 kts | 105° |
| 2026-05-05 17:28 | 34.28780 | -85.96137 | 33019 ft | 517 kts | 105° |
| 2026-05-05 17:29 | 34.26998 | -85.89272 | 33014 ft | 516 kts | 105° |
| 2026-05-05 17:29 | 34.25230 | -85.82497 | 33016 ft | 515 kts | 105° |
| 2026-05-05 17:30 | 34.23341 | -85.75279 | 32684 ft | 515 kts | 105° |
| 2026-05-05 17:30 | 34.22391 | -85.71638 | 31912 ft | 522 kts | 106° |
| 2026-05-05 17:30 | 34.21421 | -85.67937 | 31080 ft | 523 kts | 106° |
| 2026-05-05 17:30 | 34.20495 | -85.64427 | 30068 ft | 527 kts | 105° |
| 2026-05-05 17:31 | 34.19527 | -85.60744 | 28837 ft | 533 kts | 106° |
| 2026-05-05 17:31 | 34.18601 | -85.57219 | 28072 ft | 527 kts | 106° |
| 2026-05-05 17:31 | 34.17624 | -85.53519 | 27430 ft | 516 kts | 106° |
| 2026-05-05 17:31 | 34.16717 | -85.50081 | 26851 ft | 502 kts | 107° |
| 2026-05-05 17:32 | 34.15874 | -85.46902 | 26335 ft | 489 kts | 107° |
| 2026-05-05 17:32 | 34.15008 | -85.43640 | 25671 ft | 480 kts | 107° |
| 2026-05-05 17:32 | 34.14186 | -85.40541 | 24915 ft | 474 kts | 107° |
| 2026-05-05 17:32 | 34.13291 | -85.37136 | 24079 ft | 467 kts | 107° |
| 2026-05-05 17:33 | 34.12499 | -85.34084 | 23317 ft | 461 kts | 107° |
| 2026-05-05 17:33 | 34.11713 | -85.31031 | 22557 ft | 455 kts | 107° |
| 2026-05-05 17:33 | 34.10947 | -85.28062 | 21854 ft | 448 kts | 107° |
| 2026-05-05 17:33 | 34.10187 | -85.25123 | 21142 ft | 442 kts | 107° |
| 2026-05-05 17:34 | 34.09433 | -85.22208 | 20248 ft | 441 kts | 108° |
| 2026-05-05 17:34 | 34.08666 | -85.19250 | 19120 ft | 445 kts | 108° |
| 2026-05-05 17:34 | 34.07832 | -85.16046 | 17990 ft | 443 kts | 108° |
| 2026-05-05 17:34 | 34.07081 | -85.13166 | 17138 ft | 437 kts | 108° |
| 2026-05-05 17:35 | 34.06336 | -85.10319 | 16325 ft | 429 kts | 108° |
| 2026-05-05 17:35 | 34.05588 | -85.07560 | 15532 ft | 420 kts | 112° |
| 2026-05-05 17:35 | 34.04494 | -85.05000 | 14794 ft | 408 kts | 127° |
| 2026-05-05 17:35 | 34.02994 | -85.02880 | 14297 ft | 394 kts | 139° |
| 2026-05-05 17:36 | 34.01283 | -85.01067 | 14003 ft | 376 kts | 143° |
| 2026-05-05 17:36 | 33.99650 | -84.99442 | 13943 ft | 367 kts | 143° |
| 2026-05-05 17:36 | 33.97975 | -84.97781 | 13952 ft | 368 kts | 143° |
| 2026-05-05 17:36 | 33.96358 | -84.96152 | 13951 ft | 369 kts | 143° |
| 2026-05-05 17:37 | 33.94708 | -84.94463 | 13948 ft | 369 kts | 142° |
| 2026-05-05 17:37 | 33.93103 | -84.92807 | 13788 ft | 369 kts | 142° |
| 2026-05-05 17:37 | 33.91509 | -84.91156 | 13547 ft | 366 kts | 142° |
| 2026-05-05 17:37 | 33.89914 | -84.89503 | 13304 ft | 363 kts | 142° |
| 2026-05-05 17:38 | 33.88353 | -84.87886 | 13065 ft | 361 kts | 142° |
| 2026-05-05 17:38 | 33.86776 | -84.86253 | 12801 ft | 360 kts | 142° |
| 2026-05-05 17:38 | 33.85218 | -84.84642 | 12466 ft | 359 kts | 142° |
| 2026-05-05 17:38 | 33.83648 | -84.83019 | 12123 ft | 356 kts | 142° |
| 2026-05-05 17:39 | 33.82125 | -84.81445 | 11788 ft | 353 kts | 142° |
| 2026-05-05 17:39 | 33.80591 | -84.79859 | 11455 ft | 350 kts | 142° |
| 2026-05-05 17:39 | 33.79044 | -84.78262 | 11149 ft | 348 kts | 142° |
| 2026-05-05 17:39 | 33.77558 | -84.76730 | 10854 ft | 348 kts | 142° |
| 2026-05-05 17:40 | 33.76065 | -84.75191 | 10616 ft | 343 kts | 142° |
| 2026-05-05 17:40 | 33.74638 | -84.73573 | 10400 ft | 338 kts | 132° |
| 2026-05-05 17:40 | 33.73635 | -84.71605 | 10238 ft | 333 kts | 114° |
| 2026-05-05 17:40 | 33.73152 | -84.69376 | 10132 ft | 325 kts | 97° |
| 2026-05-05 17:41 | 33.73101 | -84.67072 | 10031 ft | 316 kts | 90° |
| 2026-05-05 17:41 | 33.73161 | -84.64675 | 9964 ft | 308 kts | 89° |
| 2026-05-05 17:41 | 33.73226 | -84.62223 | 9963 ft | 309 kts | 89° |
| 2026-05-05 17:41 | 33.73259 | -84.60028 | 9959 ft | 308 kts | 90° |
| 2026-05-05 17:42 | 33.73266 | -84.57896 | 9958 ft | 308 kts | 91° |
| 2026-05-05 17:42 | 33.73267 | -84.55768 | 9942 ft | 308 kts | 91° |
| 2026-05-05 17:42 | 33.73268 | -84.53655 | 9735 ft | 310 kts | 91° |
| 2026-05-05 17:42 | 33.73268 | -84.51514 | 9417 ft | 310 kts | 91° |
| 2026-05-05 17:43 | 33.73272 | -84.49355 | 9110 ft | 308 kts | 91° |
| 2026-05-05 17:43 | 33.73274 | -84.47285 | 8822 ft | 306 kts | 91° |
| 2026-05-05 17:43 | 33.73278 | -84.44990 | 8511 ft | 303 kts | 91° |
| 2026-05-05 17:43 | 33.73280 | -84.42884 | 8225 ft | 301 kts | 91° |
| 2026-05-05 17:44 | 33.73282 | -84.40795 | 8104 ft | 291 kts | 91° |
| 2026-05-05 17:44 | 33.73284 | -84.38830 | 8081 ft | 279 kts | 91° |
| 2026-05-05 17:44 | 33.73286 | -84.36963 | 8054 ft | 267 kts | 91° |
| 2026-05-05 17:44 | 33.73288 | -84.35133 | 8007 ft | 256 kts | 91° |
| 2026-05-05 17:45 | 33.73288 | -84.33408 | 7959 ft | 247 kts | 92° |
| 2026-05-05 17:45 | 33.73289 | -84.31727 | 7987 ft | 238 kts | 92° |
| 2026-05-05 17:45 | 33.73289 | -84.30106 | 7807 ft | 232 kts | 92° |
| 2026-05-05 17:45 | 33.73287 | -84.28508 | 7558 ft | 228 kts | 92° |
| 2026-05-05 17:46 | 33.73285 | -84.26917 | 7302 ft | 225 kts | 92° |
| 2026-05-05 17:46 | 33.73284 | -84.25352 | 7038 ft | 219 kts | 92° |
| 2026-05-05 17:46 | 33.73283 | -84.23804 | 6754 ft | 216 kts | 92° |
| 2026-05-05 17:46 | 33.73203 | -84.22279 | 6458 ft | 210 kts | 104° |
| 2026-05-05 17:47 | 33.72607 | -84.21074 | 6137 ft | 196 kts | 139° |
| 2026-05-05 17:47 | 33.71632 | -84.20464 | 5765 ft | 188 kts | 168° |
| 2026-05-05 17:47 | 33.70547 | -84.20400 | 5425 ft | 180 kts | 182° |
| 2026-05-05 17:47 | 33.69511 | -84.20441 | 5130 ft | 175 kts | 183° |
| 2026-05-05 17:48 | 33.68413 | -84.20486 | 4857 ft | 174 kts | 182° |
| 2026-05-05 17:48 | 33.67420 | -84.20515 | 4619 ft | 173 kts | 182° |
| 2026-05-05 17:48 | 33.66405 | -84.20564 | 4353 ft | 171 kts | 188° |
| 2026-05-05 17:48 | 33.65489 | -84.21069 | 4044 ft | 172 kts | 219° |
| 2026-05-05 17:49 | 33.64949 | -84.22120 | 3865 ft | 177 kts | 250° |
| 2026-05-05 17:49 | 33.64858 | -84.23347 | 3795 ft | 180 kts | 265° |
| 2026-05-05 17:49 | 33.64872 | -84.24596 | 3688 ft | 180 kts | 267° |
| 2026-05-05 17:49 | 33.64900 | -84.25989 | 3401 ft | 178 kts | 268° |
| 2026-05-05 17:50 | 33.64922 | -84.27242 | 3252 ft | 178 kts | 267° |
| 2026-05-05 17:50 | 33.64935 | -84.28503 | 3112 ft | 178 kts | 267° |
| 2026-05-05 17:50 | 33.64943 | -84.29732 | 2984 ft | 177 kts | 266° |
| 2026-05-05 17:50 | 33.64951 | -84.30968 | 2742 ft | 173 kts | 265° |
| 2026-05-05 17:51 | 33.64956 | -84.32181 | 2436 ft | 166 kts | 265° |
| 2026-05-05 17:51 | 33.64960 | -84.33355 | 2190 ft | 155 kts | 264° |
| 2026-05-05 17:51 | 33.64962 | -84.34464 | 1983 ft | 145 kts | 264° |
| 2026-05-05 17:51 | 33.64960 | -84.35472 | 1834 ft | 144 kts | 264° |
| 2026-05-05 17:52 | 33.64960 | -84.36449 | 1689 ft | 144 kts | 263° |
| 2026-05-05 17:52 | 33.64955 | -84.37553 | 1526 ft | 145 kts | 263° |
| 2026-05-05 17:52 | 33.64954 | -84.38543 | 1371 ft | 144 kts | 263° |
| 2026-05-05 17:52 | 33.64953 | -84.39515 | 1231 ft | 143 kts | 264° |
| 2026-05-05 17:53 | 33.64955 | -84.40506 | 1102 ft | 144 kts | 265° |
| 2026-05-05 17:53 | 33.64962 | -84.41509 | 983 ft | 140 kts | 265° |
| 2026-05-05 17:53 | 33.64951 | -84.42376 | 985 ft | 109 kts | 271° |
| 2026-05-05 17:53 | 33.64950 | -84.42992 | 997 ft | 63 kts | 270° |
| 2026-05-05 17:54 | 33.64899 | -84.43251 | 1003 ft | 20 kts | 242° |
| 2026-05-05 17:54 | 33.64827 | -84.43290 | 1005 ft | 13 kts | 133° |
| 2026-05-05 17:54 | 33.64791 | -84.43204 | 1004 ft | 13 kts | 91° |
| 2026-05-05 17:54 | 33.64790 | -84.43107 | 1002 ft | 14 kts | 92° |
| 2026-05-05 17:55 | 33.64792 | -84.42989 | 1000 ft | 15 kts | 91° |
| 2026-05-05 17:55 | 33.64760 | -84.42889 | 997 ft | 16 kts | 153° |
| 2026-05-05 17:55 | 33.64668 | -84.42868 | 997 ft | 15 kts | 161° |
| 2026-05-05 17:55 | 33.64583 | -84.42820 | 998 ft | 13 kts | 151° |
| 2026-05-05 17:56 | 33.64516 | -84.42776 | 998 ft | 8 kts | 153° |
| 2026-05-05 17:56 | 33.64467 | -84.42758 | 999 ft | 7 kts | 166° |
| 2026-05-05 17:56 | 33.64427 | -84.42741 | 999 ft | 7 kts | 162° |
| 2026-05-05 17:56 | 33.64394 | -84.42734 | 1000 ft | 3 kts | 176° |
| 2026-05-05 17:57 | 33.64367 | -84.42733 | 1000 ft | 4 kts | 178° |
| 2026-05-05 17:57 | 33.64336 | -84.42731 | 1000 ft | 4 kts | 179° |
| 2026-05-05 17:57 | 33.64321 | -84.42731 | 1000 ft | 0 kts | 179° |
| 2026-05-05 17:57 | 33.64318 | -84.42731 | 1000 ft | 0 kts | 179° |
| 2026-05-05 17:58 | 33.64310 | -84.42731 | 1000 ft | 1 kts | 179° |
| 2026-05-05 17:58 | 33.64300 | -84.42731 | 1000 ft | 2 kts | 179° |
| 2026-05-05 17:58 | 33.64285 | -84.42731 | 1000 ft | 3 kts | 179° |
| 2026-05-05 17:58 | 33.64265 | -84.42724 | 1000 ft | 3 kts | 146° |
| 2026-05-05 17:59 | 33.64255 | -84.42701 | 1000 ft | 4 kts | 104° |
| 2026-05-05 17:59 | 33.64252 | -84.42682 | 1000 ft | 0 kts | 95° |
| 2026-05-05 17:59 | 33.64252 | -84.42680 | 1000 ft | 0 kts | 95° |
| 2026-05-05 17:59 | 33.64252 | -84.42672 | 1000 ft | 1 kts | 95° |
| 2026-05-05 18:00 | 33.64252 | -84.42654 | 1000 ft | 3 kts | 91° |
| 2026-05-05 18:00 | 33.64252 | -84.42641 | 999 ft | 0 kts | 91° |
| 2026-05-05 18:00 | 33.64252 | -84.42635 | 999 ft | 1 kts | 90° |
| 2026-05-05 18:00 | 33.64252 | -84.42632 | 999 ft | 0 kts | 90° |